createdAt,value
2023-02-22T00:00:59.878Z,7.80
2023-02-22T00:03:32.500Z,7.90
2023-02-22T00:06:04.694Z,7.90
2023-02-22T00:08:36.882Z,7.90
2023-02-22T00:11:08.419Z,7.90
2023-02-22T00:13:37.505Z,7.90
2023-02-22T00:16:06.352Z,8.00
2023-02-22T00:18:35.868Z,8.00
2023-02-22T00:21:04.458Z,8.00
2023-02-22T00:23:35.074Z,7.90
2023-02-22T00:26:03.280Z,8.00
2023-02-22T00:28:31.808Z,7.90
2023-02-22T00:31:00.426Z,7.90
2023-02-22T00:33:28.694Z,7.80
2023-02-22T00:35:58.307Z,7.70
2023-02-22T00:38:28.461Z,7.70
2023-02-22T00:40:56.750Z,7.60
2023-02-22T00:43:26.381Z,7.60
2023-02-22T00:45:54.701Z,7.70
2023-02-22T00:48:22.985Z,7.60
2023-02-22T00:50:55.323Z,7.70
2023-02-22T00:53:26.933Z,7.70
2023-02-22T00:55:55.395Z,7.70
2023-02-22T00:58:24.407Z,7.60
2023-02-22T01:00:52.641Z,7.50
2023-02-22T01:03:21.998Z,7.50
2023-02-22T01:05:51.102Z,7.40
2023-02-22T01:08:19.348Z,7.20
2023-02-22T01:10:49.522Z,7.10
2023-02-22T01:13:19.793Z,6.90
2023-02-22T01:15:48.060Z,6.90
2023-02-22T01:18:17.203Z,6.90
2023-02-22T01:20:48.129Z,6.80
2023-02-22T01:23:18.726Z,6.80
2023-02-22T01:25:50.317Z,6.80
2023-02-22T01:28:18.548Z,6.90
2023-02-22T01:30:46.809Z,6.90
2023-02-22T01:33:15.549Z,6.90
2023-02-22T01:35:46.280Z,7.10
2023-02-22T01:38:15.239Z,7.00
2023-02-22T01:40:44.745Z,6.90
2023-02-22T01:43:21.871Z,6.80
2023-02-22T01:46:01.850Z,6.70
2023-02-22T01:48:41.013Z,6.40
2023-02-22T01:51:13.397Z,6.30
2023-02-22T01:53:48.732Z,6.40
2023-02-22T01:56:18.897Z,6.40
2023-02-22T01:58:53.389Z,6.40
2023-02-22T02:01:24.234Z,6.30
2023-02-22T02:03:58.051Z,6.20
2023-02-22T02:06:27.842Z,6.20
2023-02-22T02:09:01.182Z,6.40
2023-02-22T02:11:30.504Z,6.30
2023-02-22T02:14:02.953Z,6.30
2023-02-22T02:16:39.331Z,6.30
2023-02-22T02:19:16.678Z,6.20
2023-02-22T02:22:18.011Z,6.20
2023-02-22T02:25:24.879Z,6.20
2023-02-22T02:28:08.607Z,6.10
2023-02-22T02:30:51.016Z,5.90
2023-02-22T02:33:27.232Z,5.70
2023-02-22T02:36:03.954Z,5.70
2023-02-22T02:38:37.373Z,5.70
2023-02-22T02:41:11.778Z,5.70
2023-02-22T02:43:43.935Z,5.80
2023-02-22T02:46:17.301Z,5.80
2023-02-22T02:48:51.283Z,5.70
2023-02-22T02:51:21.275Z,5.70
2023-02-22T02:53:51.697Z,5.60
2023-02-22T02:56:20.289Z,5.50
2023-02-22T02:58:53.301Z,5.40
2023-02-22T03:01:44.905Z,5.50
2023-02-22T03:04:24.447Z,5.60
2023-02-22T03:07:04.069Z,5.80
2023-02-22T03:09:42.008Z,5.80
2023-02-22T03:12:27.672Z,5.80
2023-02-22T03:15:07.338Z,5.90
2023-02-22T03:17:45.459Z,6.10
2023-02-22T03:20:21.827Z,6.20
2023-02-22T03:22:57.283Z,6.30
2023-02-22T03:25:32.051Z,6.40
2023-02-22T03:28:05.458Z,6.50
2023-02-22T03:30:35.938Z,6.50
2023-02-22T03:33:09.924Z,6.60
2023-02-22T03:35:45.770Z,6.60
2023-02-22T03:38:19.056Z,6.60
2023-02-22T03:40:54.441Z,6.60
2023-02-22T03:43:31.198Z,6.70
2023-02-22T03:46:04.719Z,6.70
2023-02-22T03:48:39.216Z,6.80
2023-02-22T03:51:10.158Z,6.80
2023-02-22T03:53:38.610Z,6.80
2023-02-22T03:56:12.103Z,6.80
2023-02-22T03:58:44.037Z,6.80
2023-02-22T04:01:14.373Z,6.90
2023-02-22T04:03:43.185Z,6.90
2023-02-22T04:06:13.092Z,6.80
2023-02-22T04:08:44.054Z,6.80
2023-02-22T04:11:12.548Z,6.80
2023-02-22T04:13:43.330Z,6.70
2023-02-22T04:16:11.555Z,6.60
2023-02-22T04:18:40.693Z,6.40
2023-02-22T04:21:09.250Z,6.30
2023-02-22T04:23:43.653Z,6.20
2023-02-22T04:26:13.166Z,6.10
2023-02-22T04:28:41.380Z,6.00
2023-02-22T04:31:17.050Z,5.90
2023-02-22T04:33:47.688Z,5.90
2023-02-22T04:36:19.551Z,5.80
2023-02-22T04:38:49.497Z,5.70
2023-02-22T04:41:19.446Z,5.60
2023-02-22T04:43:48.196Z,5.60
2023-02-22T04:46:22.845Z,5.60
2023-02-22T04:48:51.427Z,5.50
2023-02-22T04:51:22.771Z,5.60
2023-02-22T04:54:14.133Z,5.60
2023-02-22T04:56:47.974Z,5.80
2023-02-22T04:59:16.193Z,5.90
2023-02-22T05:01:55.151Z,5.90
2023-02-22T05:04:23.454Z,6.00
2023-02-22T05:06:53.426Z,6.00
2023-02-22T05:09:24.387Z,5.90
2023-02-22T05:11:52.595Z,5.90
2023-02-22T05:14:20.766Z,5.70
2023-02-22T05:16:50.251Z,5.70
2023-02-22T05:19:18.417Z,5.60
2023-02-22T05:21:46.612Z,5.60
2023-02-22T05:24:14.871Z,5.50
2023-02-22T05:26:45.861Z,5.60
2023-02-22T05:29:14.496Z,5.50
2023-02-22T05:31:42.980Z,5.60
2023-02-22T05:34:11.221Z,5.80
2023-02-22T05:36:39.396Z,6.00
2023-02-22T05:39:07.705Z,6.00
2023-02-22T05:41:38.250Z,6.00
2023-02-22T05:44:07.978Z,6.00
2023-02-22T05:46:36.282Z,6.00
2023-02-22T05:49:04.842Z,6.10
2023-02-22T05:51:33.503Z,6.10
2023-02-22T05:54:01.654Z,6.10
2023-02-22T05:56:31.339Z,6.20
2023-02-22T05:58:59.614Z,6.20
2023-02-22T06:01:29.254Z,6.20
2023-02-22T06:03:59.545Z,6.20
2023-02-22T06:06:27.749Z,6.20
2023-02-22T06:08:55.877Z,6.20
2023-02-22T06:11:24.422Z,6.30
2023-02-22T06:13:52.813Z,6.20
2023-02-22T06:16:22.111Z,6.30
2023-02-22T06:18:51.759Z,6.30
2023-02-22T06:21:20.001Z,6.30
2023-02-22T06:23:48.308Z,6.30
2023-02-22T06:26:17.699Z,6.30
2023-02-22T06:28:46.490Z,6.40
2023-02-22T06:31:14.851Z,6.40
2023-02-22T06:33:43.246Z,6.40
2023-02-22T06:36:12.846Z,6.40
2023-02-22T06:38:40.985Z,6.40
2023-02-22T06:41:10.299Z,6.40
2023-02-22T06:43:41.161Z,6.50
2023-02-22T06:46:11.615Z,6.50
2023-02-22T06:48:40.287Z,6.50
2023-02-22T06:51:12.581Z,6.50
2023-02-22T06:53:40.740Z,6.50
2023-02-22T06:56:08.875Z,6.60
2023-02-22T06:58:37.060Z,6.60
2023-02-22T07:01:07.817Z,6.60
2023-02-22T07:03:36.376Z,6.60
2023-02-22T07:06:07.929Z,6.70
2023-02-22T07:08:37.580Z,6.70
2023-02-22T07:11:05.936Z,6.80
2023-02-22T07:13:36.978Z,6.80
2023-02-22T07:16:05.933Z,6.80
2023-02-22T07:18:34.152Z,6.90
2023-02-22T07:21:02.764Z,6.90
2023-02-22T07:24:00.325Z,7.00
2023-02-22T07:26:39.357Z,7.00
2023-02-22T07:29:07.546Z,7.10
2023-02-22T07:31:37.038Z,7.00
2023-02-22T07:34:05.384Z,7.10
2023-02-22T07:36:33.507Z,7.20
2023-02-22T07:39:01.682Z,7.20
2023-02-22T07:41:30.127Z,7.20
2023-02-22T07:43:59.705Z,7.30
2023-02-22T07:46:28.037Z,7.20
2023-02-22T07:48:57.318Z,7.30
2023-02-22T07:51:25.420Z,7.40
2023-02-22T07:53:56.078Z,7.50
2023-02-22T07:56:24.326Z,7.40
2023-02-22T07:58:52.664Z,7.40
2023-02-22T08:01:22.456Z,7.20
2023-02-22T08:03:50.642Z,7.30
2023-02-22T08:06:20.890Z,7.40
2023-02-22T08:08:49.159Z,7.40
2023-02-22T08:11:21.056Z,7.50
2023-02-22T08:13:49.302Z,7.40
2023-02-22T08:16:17.445Z,7.50
2023-02-22T08:18:47.119Z,7.60
2023-02-22T08:21:15.749Z,7.40
2023-02-22T08:23:44.233Z,7.50
2023-02-22T08:26:15.598Z,7.50
2023-02-22T08:28:43.835Z,7.60
2023-02-22T08:31:11.985Z,7.60
2023-02-22T08:33:42.763Z,7.60
2023-02-22T08:36:12.344Z,7.70
2023-02-22T08:38:41.010Z,7.80
2023-02-22T08:41:11.754Z,7.90
2023-02-22T08:43:40.055Z,7.90
2023-02-22T08:46:08.392Z,8.00
2023-02-22T08:48:36.769Z,8.10
2023-02-22T08:51:05.233Z,8.20
2023-02-22T08:53:34.769Z,8.20
2023-02-22T08:56:05.877Z,8.30
2023-02-22T08:58:34.104Z,8.30
2023-02-22T09:01:02.437Z,8.30
2023-02-22T09:03:30.848Z,8.40
2023-02-22T09:06:01.291Z,8.40
2023-02-22T09:08:29.589Z,8.50
2023-02-22T09:10:59.196Z,8.50
2023-02-22T09:13:27.574Z,8.50
2023-02-22T09:15:55.808Z,8.70
2023-02-22T09:18:26.876Z,8.80
2023-02-22T09:20:56.775Z,8.90
2023-02-22T09:23:25.879Z,9.00
2023-02-22T09:25:54.024Z,9.10
2023-02-22T09:28:23.884Z,9.00
2023-02-22T09:30:52.036Z,9.10
2023-02-22T09:33:21.555Z,9.10
2023-02-22T09:35:52.714Z,9.30
2023-02-22T09:38:24.447Z,9.20
2023-02-22T09:40:55.718Z,9.30
2023-02-22T09:43:36.556Z,9.20
2023-02-22T09:46:23.523Z,9.30
2023-02-22T09:49:19.356Z,9.30
2023-02-22T09:51:52.592Z,9.20
2023-02-22T09:54:25.712Z,9.30
2023-02-22T09:56:59.074Z,9.30
2023-02-22T09:59:32.939Z,9.30
2023-02-22T10:02:14.303Z,9.60
2023-02-22T10:04:47.612Z,9.60
2023-02-22T10:07:19.456Z,9.60
2023-02-22T10:09:49.691Z,9.30
2023-02-22T10:12:29.398Z,9.30
2023-02-22T10:15:45.708Z,9.20
2023-02-22T10:18:46.019Z,9.40
2023-02-22T10:21:24.686Z,9.50
2023-02-22T10:24:04.481Z,9.50
2023-02-22T10:26:36.588Z,9.60
2023-02-22T10:29:10.969Z,9.60
2023-02-22T10:31:45.659Z,9.60
2023-02-22T10:34:17.910Z,9.70
2023-02-22T10:36:49.044Z,9.80
2023-02-22T10:39:26.393Z,9.80
2023-02-22T10:41:57.991Z,9.90
2023-02-22T10:44:28.967Z,10.20
2023-02-22T10:47:01.393Z,10.50
2023-02-22T10:49:37.015Z,10.20
2023-02-22T10:52:15.204Z,10.10
2023-02-22T10:54:47.955Z,10.00
2023-02-22T10:57:16.038Z,10.00
2023-02-22T10:59:44.920Z,9.80
2023-02-22T11:02:22.262Z,9.60
2023-02-22T11:04:54.298Z,9.90
2023-02-22T11:07:25.388Z,9.70
2023-02-22T11:09:56.034Z,9.80
2023-02-22T11:12:30.811Z,9.90
2023-02-22T11:14:59.717Z,10.00
2023-02-22T11:17:34.922Z,9.90
2023-02-22T11:20:03.765Z,9.80
2023-02-22T11:22:40.795Z,9.70
2023-02-22T11:25:19.999Z,9.80
2023-02-22T11:27:48.635Z,10.00
2023-02-22T11:30:26.875Z,9.80
2023-02-22T11:32:59.937Z,9.80
2023-02-22T11:35:36.294Z,9.80
2023-02-22T11:38:21.031Z,10.00
2023-02-22T11:41:16.007Z,9.90
2023-02-22T11:43:45.507Z,9.90
2023-02-22T11:46:17.747Z,9.90
2023-02-22T11:48:58.476Z,9.80
2023-02-22T11:51:48.434Z,10.00
2023-02-22T11:54:40.770Z,10.00
2023-02-22T11:57:23.426Z,9.90
2023-02-22T12:00:09.606Z,10.00
2023-02-22T12:02:57.329Z,10.10
2023-02-22T12:05:40.956Z,10.10
2023-02-22T12:08:21.022Z,10.10
2023-02-22T12:11:03.499Z,10.20
2023-02-22T12:13:47.468Z,10.00
2023-02-22T12:16:23.293Z,10.10
2023-02-22T12:19:07.749Z,10.00
2023-02-22T12:21:41.796Z,10.10
2023-02-22T12:24:14.540Z,10.20
2023-02-22T12:26:43.658Z,10.20
2023-02-22T12:29:20.625Z,10.20
2023-02-22T12:31:57.618Z,10.30
2023-02-22T12:34:33.594Z,10.30
2023-02-22T12:37:13.080Z,10.40
2023-02-22T12:39:53.739Z,10.20
2023-02-22T12:42:29.359Z,10.20
2023-02-22T12:45:02.215Z,10.40
2023-02-22T12:47:35.245Z,10.50
2023-02-22T12:50:12.937Z,10.40
2023-02-22T12:52:51.114Z,10.50
2023-02-22T12:55:23.111Z,10.50
2023-02-22T12:57:58.614Z,10.40
2023-02-22T13:00:31.298Z,10.40
2023-02-22T13:03:02.434Z,10.20
2023-02-22T13:05:36.725Z,10.40
2023-02-22T13:08:22.396Z,10.50
2023-02-22T13:11:11.210Z,10.30
2023-02-22T13:13:53.476Z,10.30
2023-02-22T13:16:37.153Z,10.30
2023-02-22T13:19:17.668Z,10.20
2023-02-22T13:21:52.025Z,10.30
2023-02-22T13:24:27.148Z,10.40
2023-02-22T13:27:01.416Z,10.40
2023-02-22T13:29:35.131Z,10.30
2023-02-22T13:32:28.741Z,10.20
2023-02-22T13:35:20.575Z,10.40
2023-02-22T13:38:24.950Z,10.40
2023-02-22T13:41:20.365Z,10.30
2023-02-22T13:44:20.861Z,10.30
2023-02-22T13:47:31.584Z,10.30
2023-02-22T13:50:19.977Z,10.00
2023-02-22T13:52:50.108Z,10.10
2023-02-22T13:55:21.335Z,10.20
2023-02-22T13:58:00.138Z,10.20
2023-02-22T14:00:44.490Z,10.20
2023-02-22T14:03:40.881Z,10.00
2023-02-22T14:06:11.568Z,10.00
2023-02-22T14:08:47.621Z,10.20
2023-02-22T14:11:44.123Z,10.00
2023-02-22T14:14:17.461Z,10.00
2023-02-22T14:16:46.075Z,10.00
2023-02-22T14:19:18.044Z,10.00
2023-02-22T14:22:02.107Z,10.00
2023-02-22T14:24:31.906Z,10.10
2023-02-22T14:27:03.666Z,10.00
2023-02-22T14:29:33.276Z,9.90
2023-02-22T14:32:07.799Z,10.00
2023-02-22T14:34:49.463Z,9.90
2023-02-22T14:37:21.126Z,9.80
2023-02-22T14:39:52.411Z,9.80
2023-02-22T14:42:25.121Z,9.90
2023-02-22T14:45:01.197Z,9.80
2023-02-22T14:47:32.793Z,9.80
2023-02-22T14:50:07.821Z,9.70
2023-02-22T14:52:41.172Z,9.70
2023-02-22T14:55:22.089Z,9.80
2023-02-22T14:58:02.199Z,9.80
2023-02-22T15:00:46.602Z,9.80
2023-02-22T15:03:37.509Z,9.80
2023-02-22T15:06:07.513Z,9.70
2023-02-22T15:08:41.711Z,9.60
2023-02-22T15:11:21.057Z,9.50
2023-02-22T15:13:51.997Z,9.60
2023-02-22T15:16:22.762Z,9.50
2023-02-22T15:18:55.852Z,9.40
2023-02-22T15:21:27.020Z,9.40
2023-02-22T15:23:59.603Z,9.30
2023-02-22T15:26:35.502Z,9.30
2023-02-22T15:29:08.909Z,9.30
2023-02-22T15:31:44.050Z,9.20
2023-02-22T15:34:24.527Z,9.20
2023-02-22T15:36:54.551Z,9.20
2023-02-22T15:39:27.095Z,9.20
2023-02-22T15:42:09.508Z,9.10
2023-02-22T15:44:42.332Z,9.10
2023-02-22T15:47:13.113Z,9.10
2023-02-22T15:49:41.430Z,9.10
2023-02-22T15:52:19.671Z,9.10
2023-02-22T15:54:50.834Z,9.10
2023-02-22T15:57:21.351Z,9.10
2023-02-22T15:59:53.651Z,9.10
2023-02-22T16:02:35.700Z,9.00
2023-02-22T16:05:08.182Z,9.00
2023-02-22T16:07:42.060Z,9.00
2023-02-22T16:10:27.224Z,9.00
2023-02-22T16:13:22.197Z,9.00
2023-02-22T16:15:57.180Z,9.00
2023-02-22T16:18:31.161Z,8.90
2023-02-22T16:21:07.685Z,8.90
2023-02-22T16:23:45.625Z,8.90
2023-02-22T16:26:28.539Z,8.90
2023-02-22T16:28:57.397Z,8.80
2023-02-22T16:31:28.001Z,8.80
2023-02-22T16:33:57.729Z,8.80
2023-02-22T16:36:39.190Z,8.80
2023-02-22T16:39:08.459Z,8.70
2023-02-22T16:41:36.823Z,8.70
2023-02-22T16:44:07.658Z,8.70
2023-02-22T16:46:37.913Z,8.60
2023-02-22T16:49:08.387Z,8.60
2023-02-22T16:51:42.830Z,8.60
2023-02-22T16:54:13.631Z,8.50
2023-02-22T16:56:42.303Z,8.40
2023-02-22T16:59:15.720Z,8.40
2023-02-22T17:01:44.083Z,8.30
2023-02-22T17:04:17.871Z,8.30
2023-02-22T17:06:46.230Z,8.20
2023-02-22T17:09:15.346Z,8.10
2023-02-22T17:11:43.870Z,8.10
2023-02-22T17:14:18.023Z,8.10
2023-02-22T17:16:46.975Z,8.10
2023-02-22T17:19:20.340Z,8.00
2023-02-22T17:21:49.365Z,7.90
2023-02-22T17:24:22.373Z,8.00
2023-02-22T17:26:51.956Z,8.00
2023-02-22T17:29:20.676Z,8.00
2023-02-22T17:31:49.505Z,7.90
2023-02-22T17:34:19.117Z,7.90
2023-02-22T17:36:47.671Z,7.80
2023-02-22T17:39:16.442Z,7.80
2023-02-22T17:41:44.954Z,7.80
2023-02-22T17:44:13.796Z,7.80
2023-02-22T17:46:42.116Z,7.70
2023-02-22T17:49:13.858Z,7.70
2023-02-22T17:51:49.492Z,7.60
2023-02-22T17:54:18.190Z,7.60
2023-02-22T17:56:46.634Z,7.50
2023-02-22T17:59:14.901Z,7.60
2023-02-22T18:01:43.992Z,7.60
2023-02-22T18:04:12.659Z,7.50
2023-02-22T18:06:40.868Z,7.50
2023-02-22T18:09:11.332Z,7.50
2023-02-22T18:11:40.877Z,7.50
2023-02-22T18:14:10.826Z,7.40
2023-02-22T18:16:39.585Z,7.30
2023-02-22T18:19:08.153Z,7.30
2023-02-22T18:21:36.348Z,7.30
2023-02-22T18:24:06.180Z,7.30
2023-02-22T18:26:36.467Z,7.30
2023-02-22T18:29:04.735Z,7.20
2023-02-22T18:31:33.002Z,7.20
2023-02-22T18:34:01.349Z,7.20
2023-02-22T18:36:29.675Z,7.10
2023-02-22T18:38:58.082Z,7.10
2023-02-22T18:41:26.466Z,7.10
2023-02-22T18:43:58.985Z,7.10
2023-02-22T18:46:29.863Z,7.10
2023-02-22T18:48:58.554Z,7.10
2023-02-22T18:51:27.689Z,7.10
2023-02-22T18:54:00.282Z,7.10
2023-02-22T18:56:30.754Z,7.00
2023-02-22T18:59:01.781Z,7.00
2023-02-22T19:01:31.378Z,7.00
2023-02-22T19:04:01.927Z,6.90
2023-02-22T19:06:30.089Z,6.90
2023-02-22T19:09:01.331Z,6.80
2023-02-22T19:11:29.859Z,6.70
2023-02-22T19:14:03.945Z,6.80
2023-02-22T19:16:32.933Z,6.70
2023-02-22T19:19:01.314Z,6.80
2023-02-22T19:21:32.832Z,6.80
2023-02-22T19:24:04.525Z,6.70
2023-02-22T19:26:33.106Z,6.70
2023-02-22T19:29:08.481Z,6.70
2023-02-22T19:31:36.809Z,6.70
2023-02-22T19:34:08.992Z,6.60
2023-02-22T19:36:39.801Z,6.50
2023-02-22T19:39:08.662Z,6.50
2023-02-22T19:41:38.152Z,6.50
2023-02-22T19:44:08.732Z,6.50
2023-02-22T19:46:37.664Z,6.50
2023-02-22T19:49:06.815Z,6.40
2023-02-22T19:51:35.939Z,6.40
2023-02-22T19:54:06.502Z,6.50
2023-02-22T19:56:36.384Z,6.40
2023-02-22T19:59:12.553Z,6.40
2023-02-22T20:01:44.309Z,6.40
2023-02-22T20:04:18.206Z,6.40
2023-02-22T20:06:47.310Z,6.40
2023-02-22T20:09:20.119Z,6.30
2023-02-22T20:11:51.635Z,6.30
2023-02-22T20:14:24.652Z,6.30
2023-02-22T20:16:54.322Z,6.30
2023-02-22T20:19:23.530Z,6.30
2023-02-22T20:21:53.180Z,6.20
2023-02-22T20:24:21.567Z,6.20
2023-02-22T20:26:57.533Z,6.20
2023-02-22T20:29:33.233Z,6.20
2023-02-22T20:32:05.557Z,6.20
2023-02-22T20:34:36.120Z,6.10
2023-02-22T20:37:05.012Z,6.20
2023-02-22T20:39:36.672Z,6.20
2023-02-22T20:42:11.609Z,6.20
2023-02-22T20:44:41.267Z,6.10
2023-02-22T20:47:10.192Z,6.10
2023-02-22T20:49:40.037Z,6.10
2023-02-22T20:52:08.339Z,6.10
2023-02-22T20:54:38.037Z,6.00
2023-02-22T20:57:08.493Z,6.10
2023-02-22T20:59:44.371Z,6.00
2023-02-22T21:02:12.987Z,6.00
2023-02-22T21:04:44.309Z,6.00
2023-02-22T21:07:12.998Z,5.90
2023-02-22T21:09:43.323Z,6.00
2023-02-22T21:12:13.793Z,5.90
2023-02-22T21:14:44.708Z,5.90
2023-02-22T21:17:14.187Z,5.90
2023-02-22T21:19:45.310Z,5.80
2023-02-22T21:22:15.830Z,5.70
2023-02-22T21:24:46.260Z,5.70
2023-02-22T21:27:16.133Z,5.70
2023-02-22T21:29:48.712Z,5.80
2023-02-22T21:32:20.869Z,5.70
2023-02-22T21:34:49.436Z,5.70
2023-02-22T21:37:18.832Z,5.60
2023-02-22T21:39:50.037Z,5.60
2023-02-22T21:42:18.290Z,5.60
2023-02-22T21:44:50.902Z,5.60
2023-02-22T21:47:18.978Z,5.60
2023-02-22T21:49:47.296Z,5.60
2023-02-22T21:52:16.058Z,5.60
2023-02-22T21:54:44.623Z,5.60
2023-02-22T21:57:12.893Z,5.50
2023-02-22T21:59:41.169Z,5.50
2023-02-22T22:02:12.620Z,5.50
2023-02-22T22:04:40.784Z,5.50
2023-02-22T22:07:08.942Z,5.50
2023-02-22T22:09:38.010Z,5.50
2023-02-22T22:12:14.612Z,5.50
2023-02-22T22:14:43.508Z,5.40
2023-02-22T22:17:13.723Z,5.40
2023-02-22T22:19:44.419Z,5.40
2023-02-22T22:22:12.979Z,5.30
2023-02-22T22:24:45.729Z,5.30
2023-02-22T22:27:15.332Z,5.30
2023-02-22T22:29:45.399Z,5.30
2023-02-22T22:32:16.175Z,5.20
2023-02-22T22:34:44.500Z,5.20
2023-02-22T22:37:13.289Z,5.20
2023-02-22T22:39:42.402Z,5.20
2023-02-22T22:42:10.674Z,5.20
2023-02-22T22:44:42.046Z,5.10
2023-02-22T22:47:12.396Z,5.10
2023-02-22T22:49:42.608Z,5.10
2023-02-22T22:52:14.182Z,5.00
2023-02-22T22:54:43.970Z,5.00
2023-02-22T22:57:12.884Z,5.00
2023-02-22T22:59:41.166Z,5.00
2023-02-22T23:02:11.517Z,4.90
2023-02-22T23:04:41.293Z,4.90
2023-02-22T23:07:09.674Z,4.90
2023-02-22T23:09:39.442Z,4.90
2023-02-22T23:12:09.749Z,4.90
2023-02-22T23:14:39.443Z,4.80
2023-02-22T23:17:15.369Z,4.70
2023-02-22T23:19:46.237Z,4.70
2023-02-22T23:22:15.188Z,4.70
2023-02-22T23:24:44.480Z,4.70
2023-02-22T23:27:12.882Z,4.80
2023-02-22T23:29:46.483Z,4.70
2023-02-22T23:32:15.017Z,4.60
2023-02-22T23:34:44.646Z,4.60
2023-02-22T23:37:15.139Z,4.60
2023-02-22T23:39:43.363Z,4.60
2023-02-22T23:42:11.556Z,4.60
2023-02-22T23:44:40.445Z,4.60
2023-02-22T23:47:09.606Z,4.60
2023-02-22T23:49:38.533Z,4.60
2023-02-22T23:52:09.646Z,4.50
2023-02-22T23:54:43.853Z,4.50
2023-02-22T23:57:12.545Z,4.50
2023-02-22T23:59:40.807Z,4.50
